createdAt,value
2022-11-24T00:45:38.142Z,8.15
2022-11-24T00:48:07.855Z,6.10
2022-11-24T00:50:37.258Z,8.23
2022-11-24T00:53:06.658Z,7.70
2022-11-24T00:55:36.029Z,7.22
2022-11-24T00:58:05.159Z,9.73
2022-11-24T01:48:17.112Z,6.03
2022-11-24T01:50:47.834Z,5.50
2022-11-24T01:53:16.904Z,7.45
2022-11-24T01:55:45.766Z,6.15
2022-11-24T01:58:24.646Z,6.18
2022-11-24T02:47:46.021Z,6.53
2022-11-24T02:50:15.050Z,6.75
2022-11-24T02:52:44.053Z,5.72
2022-11-24T02:55:13.127Z,6.05
2022-11-24T02:57:41.928Z,5.78
2022-11-24T03:00:12.614Z,5.80
2022-11-24T03:47:08.972Z,5.57
2022-11-24T03:49:38.282Z,5.35
2022-11-24T03:52:10.923Z,5.22
2022-11-24T03:54:39.813Z,5.35
2022-11-24T03:57:11.178Z,5.75
2022-11-24T03:59:42.472Z,5.85
2022-11-24T04:46:25.316Z,4.22
2022-11-24T04:48:54.172Z,4.30
2022-11-24T04:51:48.492Z,4.88
2022-11-24T04:54:17.347Z,4.47
2022-11-24T04:56:46.250Z,4.70
2022-11-24T04:59:16.079Z,5.45
2022-11-24T05:30:17.825Z,5.00
2022-11-24T05:32:46.245Z,5.82
2022-11-24T05:35:15.176Z,5.10
2022-11-24T05:37:47.652Z,6.07
2022-11-24T05:40:16.413Z,4.45
2022-11-24T05:42:48.008Z,7.18
2022-11-24T05:45:21.351Z,5.18
2022-11-24T05:47:51.394Z,6.03
2022-11-24T05:50:23.258Z,6.82
2022-11-24T05:52:52.601Z,7.53
2022-11-24T05:55:21.726Z,6.10
2022-11-24T05:57:50.925Z,5.55
2022-11-24T06:00:22.623Z,5.90
2022-11-24T06:02:51.688Z,5.32
2022-11-24T06:05:20.497Z,5.72
2022-11-24T06:07:49.259Z,6.38
2022-11-24T06:10:21.962Z,5.03
2022-11-24T06:12:52.776Z,5.20
2022-11-24T06:15:23.823Z,5.40
2022-11-24T06:17:59.684Z,6.28
2022-11-24T06:20:32.612Z,6.15
2022-11-24T06:23:04.938Z,4.97
2022-11-24T06:25:35.977Z,5.15
2022-11-24T06:28:06.890Z,4.82
2022-11-24T06:30:39.795Z,4.68
2022-11-24T06:33:08.650Z,4.85
2022-11-24T06:35:38.535Z,6.68
2022-11-24T06:38:08.100Z,7.35
2022-11-24T06:40:37.021Z,9.27
2022-11-24T06:43:06.248Z,8.48
2022-11-24T06:45:36.265Z,7.68
2022-11-24T06:48:05.718Z,8.18
2022-11-24T06:50:34.955Z,10.23
2022-11-24T06:53:03.969Z,7.68
2022-11-24T06:55:34.645Z,7.57
2022-11-24T06:58:03.911Z,7.82
2022-11-24T07:00:33.173Z,8.85
2022-11-24T07:03:07.210Z,11.40
2022-11-24T07:05:36.070Z,12.23
2022-11-24T07:08:05.033Z,13.10
2022-11-24T07:10:39.299Z,9.65
2022-11-24T07:13:15.248Z,11.82
2022-11-24T07:15:44.595Z,9.70
2022-11-24T07:52:46.978Z,11.27
2022-11-24T07:55:33.709Z,6.95
2022-11-24T07:58:03.435Z,8.05
2022-11-24T08:00:31.844Z,7.55
2022-11-24T08:03:00.283Z,7.10
2022-11-24T08:05:28.652Z,7.75
2022-11-24T08:07:56.978Z,8.00
2022-11-24T08:10:25.280Z,7.07
2022-11-24T08:12:53.656Z,8.70
2022-11-24T08:15:23.316Z,7.72
2022-11-24T08:17:51.656Z,7.20
2022-11-24T08:20:20.288Z,7.05
2022-11-24T08:22:48.506Z,7.70
2022-11-24T08:25:18.443Z,7.30
2022-11-24T08:27:46.817Z,7.57
2022-11-24T08:30:15.934Z,9.32
2022-11-24T08:32:45.654Z,6.88
2022-11-24T08:35:14.641Z,7.10
2022-11-24T08:37:43.228Z,6.60
2022-11-24T08:40:13.653Z,6.78
2022-11-24T08:42:41.930Z,7.70
2022-11-24T08:45:20.593Z,6.35
2022-11-24T08:47:55.115Z,7.95
2022-11-24T08:50:23.969Z,6.78
2022-11-24T08:52:53.559Z,7.50
2022-11-24T08:55:22.322Z,6.78
2022-11-24T08:57:50.586Z,6.10
2022-11-24T09:00:22.482Z,7.03
2022-11-24T09:02:59.672Z,7.32
2022-11-24T09:08:16.239Z,6.53
2022-11-24T09:10:44.521Z,6.72
2022-11-24T09:13:14.402Z,7.22
2022-11-24T09:15:42.705Z,7.07
2022-11-24T09:18:12.342Z,6.68
2022-11-24T09:20:40.728Z,6.63
2022-11-24T09:23:09.069Z,6.15
2022-11-24T09:25:37.461Z,6.32
2022-11-24T09:28:06.035Z,7.03
2022-11-24T09:30:34.389Z,7.00
2022-11-24T09:33:02.775Z,7.00
2022-11-24T09:35:32.432Z,8.05
2022-11-24T09:38:00.705Z,7.03
2022-11-24T09:40:29.004Z,6.32
2022-11-24T09:43:04.155Z,6.07
2022-11-24T09:48:37.547Z,6.15
2022-11-24T09:51:11.379Z,5.93
2022-11-24T09:53:45.273Z,6.80
2022-11-24T09:56:21.891Z,6.30
2022-11-24T09:58:52.595Z,6.63
2022-11-24T10:01:25.214Z,5.50
2022-11-24T10:03:54.865Z,5.93
2022-11-24T10:06:27.214Z,6.72
2022-11-24T10:09:33.243Z,6.72
2022-11-24T10:12:17.256Z,7.22
2022-11-24T10:15:21.688Z,5.88
2022-11-24T10:18:25.086Z,5.78
2022-11-24T10:21:04.873Z,6.20
2022-11-24T10:23:56.214Z,6.70
2022-11-24T10:26:36.108Z,10.05
2022-11-24T10:29:19.931Z,9.77
2022-11-24T10:31:51.078Z,9.05
2022-11-24T10:34:22.200Z,7.65
2022-11-24T10:36:59.026Z,9.00
2022-11-24T10:39:36.613Z,8.80
2022-11-24T10:42:15.141Z,7.13
2022-11-24T10:44:44.983Z,9.02
2022-11-24T10:47:22.558Z,10.68
2022-11-24T10:49:58.013Z,6.55
2022-11-24T10:52:27.759Z,9.65
2022-11-24T10:54:59.989Z,8.02
2022-11-24T10:57:34.300Z,6.05
2022-11-24T11:00:05.607Z,17.85
2022-11-24T11:02:38.609Z,30.70
2022-11-24T11:05:42.177Z,163.93
2022-11-24T11:08:23.975Z,79.10
2022-11-24T11:11:22.003Z,76.53
2022-11-24T11:14:01.491Z,78.38
2022-11-24T11:16:37.111Z,82.68
2022-11-24T11:19:26.153Z,72.30
2022-11-24T11:22:03.332Z,120.68
2022-11-24T11:24:31.966Z,164.20
2022-11-24T11:27:18.028Z,163.35
2022-11-24T11:35:26.250Z,159.30
2022-11-24T11:37:56.113Z,209.98
2022-11-24T11:40:30.398Z,190.40
2022-11-24T11:43:05.806Z,192.00
2022-11-24T11:45:37.870Z,213.30
2022-11-24T11:48:28.346Z,295.10
2022-11-24T11:54:04.847Z,981.20
2022-11-24T11:56:40.251Z,964.42
2022-11-24T11:59:42.969Z,842.45
2022-11-24T12:02:48.559Z,773.33
2022-11-24T12:05:31.329Z,721.50
2022-11-24T12:08:28.926Z,715.22
2022-11-24T12:11:09.187Z,704.70
2022-11-24T12:13:54.937Z,772.85
2022-11-24T12:16:40.381Z,734.88
2022-11-24T12:19:37.932Z,733.92
2022-11-24T12:22:16.545Z,741.80
2022-11-24T12:24:55.801Z,801.33
2022-11-24T12:27:40.639Z,753.25
2022-11-24T12:30:15.165Z,769.58
2022-11-24T12:33:15.362Z,769.38
2022-11-24T12:35:46.421Z,754.60
2022-11-24T12:38:42.888Z,748.00
2022-11-24T12:41:46.080Z,672.90
2022-11-24T12:44:36.382Z,594.92
2022-11-24T12:47:14.960Z,576.17
2022-11-24T12:50:11.582Z,574.85
2022-11-24T12:52:47.941Z,568.60
2022-11-24T12:55:21.978Z,560.63
2022-11-24T12:57:59.780Z,541.05
2022-11-24T13:00:36.642Z,551.92
2022-11-24T13:03:22.055Z,544.80
2022-11-24T13:05:58.771Z,537.85
2022-11-24T13:08:28.892Z,525.67
2022-11-24T13:11:38.938Z,518.58
2022-11-24T13:14:13.566Z,469.27
2022-11-24T13:19:44.378Z,440.58
2022-11-24T13:22:23.700Z,436.55
2022-11-24T13:25:16.019Z,438.45
2022-11-24T13:27:48.177Z,436.52
2022-11-24T13:30:58.461Z,443.05
2022-11-24T13:33:38.538Z,427.95
2022-11-24T13:36:48.367Z,433.90
2022-11-24T13:39:22.645Z,428.23
2022-11-24T13:42:09.360Z,415.45
2022-11-24T13:44:55.429Z,405.60
2022-11-24T13:47:41.137Z,411.90
2022-11-24T13:50:25.431Z,420.40
2022-11-24T13:53:07.363Z,406.98
2022-11-24T13:55:40.808Z,399.30
2022-11-24T13:58:32.779Z,398.80
2022-11-24T14:01:19.090Z,399.98
2022-11-24T14:07:05.510Z,394.73
2022-11-24T14:09:43.350Z,370.90
2022-11-24T14:12:19.328Z,389.55
2022-11-24T14:14:49.551Z,373.60
2022-11-24T14:17:23.015Z,373.52
2022-11-24T14:19:54.029Z,371.15
2022-11-24T14:22:26.989Z,365.63
2022-11-24T14:24:57.602Z,372.70
2022-11-24T14:27:33.651Z,373.17
2022-11-24T14:30:05.516Z,353.60
2022-11-24T14:32:34.010Z,359.95
2022-11-24T14:35:02.529Z,339.60
2022-11-24T14:37:31.576Z,334.23
2022-11-24T14:39:59.883Z,315.35
2022-11-24T14:42:33.257Z,285.67
2022-11-24T14:45:03.826Z,291.40
2022-11-24T14:47:36.121Z,229.15
2022-11-24T14:50:15.002Z,230.63
2022-11-24T14:52:48.573Z,227.60
2022-11-24T14:55:29.187Z,209.20
2022-11-24T14:57:59.934Z,204.93
2022-11-24T15:00:31.552Z,213.07
2022-11-24T15:03:17.285Z,186.98
2022-11-24T15:05:56.335Z,176.65
2022-11-24T15:08:26.526Z,161.48
2022-11-24T15:11:03.132Z,158.02
2022-11-24T15:13:38.260Z,152.40
2022-11-24T15:16:13.055Z,146.50
2022-11-24T15:18:44.476Z,138.90
2022-11-24T15:21:18.855Z,124.72
2022-11-24T15:24:08.453Z,121.15
2022-11-24T15:26:41.715Z,107.30
2022-11-24T15:29:12.976Z,99.72
2022-11-24T15:31:44.220Z,101.63
2022-11-24T15:34:16.121Z,124.20
2022-11-24T15:36:44.400Z,92.28
2022-11-24T15:39:12.875Z,91.28
2022-11-24T15:41:42.981Z,88.22
2022-11-24T15:44:12.684Z,79.80
2022-11-24T15:46:40.999Z,82.03
2022-11-24T15:49:09.429Z,77.20
2022-11-24T15:51:43.534Z,77.15
2022-11-24T15:54:16.884Z,80.88
2022-11-24T15:56:45.376Z,71.15
2022-11-24T15:59:20.335Z,70.57
2022-11-24T16:01:49.776Z,72.70
2022-11-24T16:04:18.968Z,75.53
2022-11-24T16:06:47.965Z,72.00
2022-11-24T16:09:17.624Z,74.25
2022-11-24T16:11:46.345Z,69.38
2022-11-24T16:14:16.259Z,70.75
2022-11-24T16:16:46.109Z,66.78
2022-11-24T16:19:16.164Z,66.45
2022-11-24T16:21:44.485Z,68.43
2022-11-24T16:24:16.008Z,64.72
2022-11-24T16:26:44.404Z,65.80
2022-11-24T16:29:12.944Z,61.28
2022-11-24T16:31:43.488Z,60.78
2022-11-24T16:34:11.956Z,65.50
2022-11-24T16:36:40.316Z,69.03
2022-11-24T16:39:08.631Z,61.45
2022-11-24T16:41:36.943Z,60.20
2022-11-24T16:44:05.861Z,63.42
2022-11-24T16:46:34.261Z,63.03
2022-11-24T16:49:04.481Z,58.63
2022-11-24T16:51:36.820Z,55.15
2022-11-24T16:54:05.531Z,55.40
2022-11-24T16:56:37.767Z,53.10
2022-11-24T16:59:11.296Z,60.92
2022-11-24T17:01:40.529Z,58.78
2022-11-24T17:04:12.818Z,53.95
2022-11-24T17:06:41.743Z,56.40
2022-11-24T17:09:12.064Z,53.13
2022-11-24T17:11:42.279Z,59.03
2022-11-24T17:14:12.867Z,53.58
2022-11-24T17:16:42.829Z,52.53
2022-11-24T17:19:14.076Z,50.67
2022-11-24T17:21:43.646Z,50.90
2022-11-24T17:24:17.633Z,55.17
2022-11-24T17:26:49.122Z,46.72
2022-11-24T17:29:19.335Z,48.70
2022-11-24T17:31:50.051Z,47.17
2022-11-24T17:34:21.901Z,45.83
2022-11-24T17:36:51.935Z,51.17
2022-11-24T17:39:25.298Z,45.38
2022-11-24T17:41:54.705Z,47.58
2022-11-24T17:44:24.445Z,42.40
2022-11-24T17:46:54.071Z,44.97
2022-11-24T17:49:25.994Z,40.50
2022-11-24T17:51:56.014Z,50.33
2022-11-24T17:57:17.145Z,46.50
2022-11-24T17:59:51.336Z,43.90
2022-11-24T18:02:20.173Z,42.63
2022-11-24T18:04:50.095Z,40.17
2022-11-24T18:07:21.302Z,44.25
2022-11-24T18:09:49.638Z,41.35
2022-11-24T18:12:17.990Z,37.70
2022-11-24T18:14:47.209Z,39.70
2022-11-24T18:17:15.553Z,38.60
2022-11-24T18:19:44.014Z,41.60
2022-11-24T18:22:13.721Z,41.22
2022-11-24T18:24:43.160Z,43.83
2022-11-24T18:27:13.081Z,39.92
2022-11-24T18:29:41.358Z,37.78
2022-11-24T18:32:10.013Z,34.58
2022-11-24T18:34:39.187Z,36.03
2022-11-24T18:37:08.666Z,34.95
2022-11-24T18:39:42.585Z,38.67
2022-11-24T18:42:11.722Z,42.13
2022-11-24T18:44:42.337Z,35.35
2022-11-24T18:47:11.199Z,32.42
2022-11-24T18:49:39.836Z,36.63
2022-11-24T18:52:08.876Z,31.50
2022-11-24T18:54:39.369Z,32.95
2022-11-24T18:57:08.605Z,37.30
2022-11-24T18:59:37.331Z,40.10
2022-11-24T19:02:06.115Z,42.05
2022-11-24T19:04:35.092Z,43.90
2022-11-24T19:07:03.967Z,43.35
2022-11-24T19:09:32.828Z,45.05
2022-11-24T19:12:04.126Z,43.47
2022-11-24T19:14:33.212Z,37.88
2022-11-24T19:17:03.381Z,36.03
2022-11-24T19:19:36.410Z,37.13
2022-11-24T19:22:05.755Z,41.42
2022-11-24T19:24:34.864Z,35.95
2022-11-24T19:27:06.491Z,37.55
2022-11-24T19:29:42.919Z,35.10
2022-11-24T19:32:15.442Z,33.28
2022-11-24T19:34:45.499Z,34.40
2022-11-24T19:37:14.556Z,32.50
2022-11-24T19:39:43.393Z,28.25
2022-11-24T19:42:15.298Z,31.80
2022-11-24T19:44:44.475Z,28.58
2022-11-24T19:47:13.318Z,29.42
2022-11-24T19:49:42.833Z,30.05
2022-11-24T19:52:11.901Z,30.90
2022-11-24T19:54:40.694Z,33.75
2022-11-24T19:57:09.737Z,30.65
2022-11-24T19:59:40.553Z,27.45
2022-11-24T20:02:11.877Z,28.10
2022-11-24T20:04:43.733Z,28.80
2022-11-24T20:07:14.879Z,28.92
2022-11-24T20:09:43.998Z,25.92
2022-11-24T20:12:13.034Z,29.13
2022-11-24T20:14:43.391Z,28.20
2022-11-24T20:17:14.149Z,28.75
2022-11-24T20:19:43.472Z,26.23
2022-11-24T20:22:12.200Z,26.35
2022-11-24T20:24:41.718Z,26.27
2022-11-24T20:27:10.338Z,23.30
2022-11-24T20:29:45.275Z,24.70
2022-11-24T20:32:19.780Z,24.92
2022-11-24T20:34:49.325Z,25.55
2022-11-24T20:37:18.421Z,23.45
2022-11-24T20:39:47.446Z,27.55
2022-11-24T20:42:16.336Z,24.40
2022-11-24T20:44:45.159Z,24.65
2022-11-24T20:47:15.325Z,23.55
2022-11-24T20:49:44.548Z,23.88
2022-11-24T20:52:13.555Z,19.77
2022-11-24T20:54:42.534Z,21.13
2022-11-24T20:57:11.156Z,21.75
2022-11-24T20:59:40.204Z,18.77
2022-11-24T21:02:10.813Z,17.83
2022-11-24T21:04:40.960Z,17.95
2022-11-24T21:07:13.417Z,21.17
2022-11-24T21:09:42.210Z,18.75
2022-11-24T21:12:11.310Z,20.75
2022-11-24T21:14:40.844Z,16.85
2022-11-24T21:17:11.174Z,17.85
2022-11-24T21:19:41.655Z,17.15
2022-11-24T21:22:11.665Z,19.13
2022-11-24T21:24:41.316Z,18.25
2022-11-24T21:27:11.236Z,18.42
2022-11-24T21:29:40.601Z,17.95
2022-11-24T21:32:10.489Z,20.73
2022-11-24T21:34:40.632Z,17.60
2022-11-24T21:37:09.279Z,19.85
2022-11-24T21:39:37.772Z,18.60
2022-11-24T21:42:07.029Z,17.70
2022-11-24T21:44:35.886Z,19.02
2022-11-24T21:47:04.765Z,15.93
2022-11-24T21:49:33.214Z,18.15
2022-11-24T21:52:03.131Z,16.75
2022-11-24T21:54:31.556Z,16.48
2022-11-24T21:57:00.313Z,16.75
2022-11-24T21:59:28.815Z,16.00
2022-11-24T22:01:57.736Z,17.13
2022-11-24T22:04:26.732Z,15.68
2022-11-24T22:06:55.433Z,15.52
2022-11-24T22:09:25.354Z,17.92
2022-11-24T22:11:54.697Z,14.70
2022-11-24T22:14:23.498Z,15.27
2022-11-24T22:17:06.069Z,15.13
2022-11-24T22:19:34.997Z,17.67
2022-11-24T22:22:03.563Z,19.35
2022-11-24T22:24:33.592Z,15.93
2022-11-24T22:27:02.973Z,14.52
2022-11-24T22:29:31.364Z,14.00
2022-11-24T22:32:00.004Z,15.52
2022-11-24T22:34:28.431Z,15.63
2022-11-24T22:36:56.703Z,14.00
2022-11-24T22:39:25.046Z,14.70
2022-11-24T22:41:55.442Z,14.88
2022-11-24T22:44:23.770Z,16.23
2022-11-24T22:46:52.226Z,15.90
2022-11-24T22:49:20.504Z,15.75
2022-11-24T22:51:48.934Z,14.30
2022-11-24T22:54:17.190Z,19.77
2022-11-24T22:56:45.479Z,14.70
2022-11-24T22:59:15.146Z,15.90
2022-11-24T23:01:43.494Z,15.82
2022-11-24T23:04:12.099Z,15.05
2022-11-24T23:06:40.674Z,13.93
2022-11-24T23:09:11.775Z,15.80
2022-11-24T23:11:42.280Z,16.10
2022-11-24T23:14:16.530Z,16.85
2022-11-24T23:46:03.883Z,14.32
2022-11-24T23:48:32.561Z,16.30
2022-11-24T23:51:06.136Z,16.02
2022-11-24T23:53:35.633Z,15.52
2022-11-24T23:56:04.745Z,15.20
2022-11-24T23:58:34.107Z,16.75
